This is the latest recevied weather packets stored in our database for station/object N1TKS. If no packets are shown the sender has not sent any weather packets the latest 10 day(s).
| Time | Temp. | Humidity | Pressure | Rain* | Wind** | Luminosity | Snow |
|---|---|---|---|---|---|---|---|
| 1778126514 | 13.89° C | 86% | 1008.9 hPa | 0 mm | - | - | - |
| 1778126215 | 13.89° C | 86% | 1008.6 hPa | 0 mm | - | - | - |
| 1778125913 | 13.89° C | 86% | 1008.6 hPa | 0 mm | - | - | - |
| 1778125455 | 13.89° C | 87% | 1008.4 hPa | 0 mm | - | - | - |
| 1778125313 | 13.89° C | 87% | 1008.4 hPa | 0 mm | - | - | - |
| 1778125014 | 13.89° C | 87% | 1008.5 hPa | 0 mm | - | - | - |
| 1778124715 | 13.89° C | 87% | 1008.3 hPa | 0 mm | - | - | - |
| 1778124642 | 13.89° C | 87% | 1008.6 hPa | 2.54 mm | - | - | - |
| 1778124170 | 13.89° C | 87% | 1008.4 hPa | 0.25 mm | - | - | - |
| 1778124115 | 13.89° C | 87% | 1008.4 hPa | 0.25 mm | - | - | - |
| 1778123515 | 13.89° C | 87% | 1008.5 hPa | 1.27 mm | - | - | - |
| 1778123214 | 13.89° C | 87% | 1008.6 hPa | 2.54 mm | - | - | - |
| 1778122915 | 13.89° C | 87% | 1008.7 hPa | 3.05 mm | - | - | - |
| 1778122615 | 13.89° C | 88% | 1008.8 hPa | 3.05 mm | - | - | - |
| 1778122315 | 14.44° C | 88% | 1008.7 hPa | 3.05 mm | - | - | - |
| 1778122014 | 14.44° C | 88% | 1008.8 hPa | 3.3 mm | - | - | - |
| 1778121714 | 14.44° C | 88% | 1008.9 hPa | 3.3 mm | - | - | - |
| 1778121115 | 14.44° C | 88% | 1008.8 hPa | 3.3 mm | - | - | - |
| 1778120809 | 15° C | 89% | 1008.6 hPa | 0.76 mm | - | - | - |
| 1778120517 | 15° C | 89% | 1008.7 hPa | 3.05 mm | - | - | - |
| 1778120258 | 15.56° C | 89% | 1008.8 hPa | 2.79 mm | - | - | - |
| 1778120215 | 15.56° C | 89% | 1008.8 hPa | 2.79 mm | - | - | - |
| 1778119922 | 15.56° C | 89% | 1008.7 hPa | 2.03 mm | - | - | - |
| 1778119614 | 15° C | 89% | 1008.6 hPa | 0.76 mm | - | - | - |
| 1778119313 | 15° C | 89% | 1008.5 hPa | 0.25 mm | - | - | - |
* Rain latest hour (hover to see other rain measurements)
** Current wind speed in m/s (hover to see current wind gust speed)